Time;durP1;ratioP1;P1;durP2;ratioP2;P2;SDS_P1;SDS_P2;PMS_P1;PMS_P2;Temp;Humidity;BMP_temperature;BMP_pressure;BME280_temperature;BME280_humidity;BME280_pressure;Samples;Min_cycle;Max_cycle;Signal;HPM_P1;HPM_P2
2022/03/04 00:01:24;;;;;;;149.33;65.07;;;;;;;0.66;87.62;94393.19;5030814;28;20200;-78
2022/03/04 00:04:14;;;;;;;186.30;83.47;;;;;;;0.69;88.27;94410.78;5030954;28;20216;-81
2022/03/04 00:06:47;;;;;;;146.03;65.37;;;;;;;0.42;87.98;94386.38;5031337;28;20210;-86
2022/03/04 00:09:15;;;;;;;125.07;55.77;;;;;;;0.52;88.24;94402.31;5035358;28;20206;-86
2022/03/04 00:11:44;;;;;;;149.83;65.33;;;;;;;0.46;88.52;94405.53;5036389;28;20268;-86
2022/03/04 00:14:16;;;;;;;127.83;57.17;;;;;;;0.43;88.46;94402.50;5042708;28;20202;-86
2022/03/04 00:16:44;;;;;;;113.43;53.23;;;;;;;0.29;87.87;94375.84;5052221;28;20202;-87
2022/03/04 00:19:16;;;;;;;105.13;49.43;;;;;;;0.40;88.16;94395.19;5052116;28;20727;-84
2022/03/04 00:21:47;;;;;;;86.17;39.33;;;;;;;0.19;88.25;94366.78;5051947;28;20582;-84
2022/03/04 00:24:18;;;;;;;75.47;35.93;;;;;;;0.32;88.62;94402.81;5051884;28;20654;-84
2022/03/04 00:26:48;;;;;;;82.60;40.13;;;;;;;0.36;88.98;94396.44;5052263;28;20585;-84
2022/03/04 00:29:18;;;;;;;83.03;40.53;;;;;;;0.16;88.23;94367.09;5051730;28;20301;-85
2022/03/04 00:31:46;;;;;;;92.80;44.27;;;;;;;0.31;88.81;94393.59;5051888;28;20394;-84
2022/03/04 00:34:14;;;;;;;87.43;44.00;;;;;;;0.28;89.21;94399.81;5051868;28;20206;-85
2022/03/04 00:36:43;;;;;;;92.77;44.93;;;;;;;0.37;89.15;94390.38;5051689;28;20195;-85
2022/03/04 00:39:14;;;;;;;108.87;47.33;;;;;;;0.30;89.19;94380.00;5052392;28;20198;-85
2022/03/04 00:41:44;;;;;;;110.07;52.30;;;;;;;0.37;89.16;94387.84;5053884;28;20207;-85
2022/03/04 00:44:13;;;;;;;122.70;55.10;;;;;;;0.32;88.54;94395.16;5054580;28;20756;-85
2022/03/04 00:46:45;;;;;;;122.93;55.97;;;;;;;0.23;89.44;94386.72;5054207;28;20200;-85
2022/03/04 00:49:13;;;;;;;135.23;58.10;;;;;;;0.28;89.69;94386.25;5054640;28;20210;-85
2022/03/04 00:51:44;;;;;;;128.67;62.10;;;;;;;0.32;89.98;94400.28;5048073;28;20293;-86
2022/03/04 00:54:13;;;;;;;134.50;61.47;;;;;;;0.32;89.53;94385.75;5054571;28;20311;-85
2022/03/04 00:56:45;;;;;;;141.30;62.57;;;;;;;0.30;89.89;94389.44;5054066;28;20609;-85
2022/03/04 00:59:14;;;;;;;134.70;61.33;;;;;;;0.16;90.38;94370.47;5056022;28;20186;-85
2022/03/04 01:01:45;;;;;;;135.17;61.00;;;;;;;0.20;90.67;94381.16;5066795;28;20210;-84
2022/03/04 01:04:14;;;;;;;128.73;61.23;;;;;;;0.22;90.73;94381.78;5057138;28;20277;-86
2022/03/04 01:06:44;;;;;;;138.53;64.93;;;;;;;0.27;89.96;94376.97;5055161;28;20209;-86
2022/03/04 01:09:12;;;;;;;129.00;61.90;;;;;;;0.12;90.18;94356.41;5054577;28;20662;-85
2022/03/04 01:11:40;;;;;;;123.47;58.17;;;;;;;0.25;90.60;94373.78;5052743;28;20209;-85
2022/03/04 01:14:11;;;;;;;123.60;55.50;;;;;;;0.18;91.22;94376.19;5053127;28;20207;-84
2022/03/04 01:16:39;;;;;;;126.60;56.47;;;;;;;0.15;90.69;94371.41;5053454;28;20684;-84
2022/03/04 01:19:09;;;;;;;133.40;62.30;;;;;;;0.14;90.82;94358.81;5052686;28;20201;-84
2022/03/04 01:21:38;;;;;;;132.10;59.73;;;;;;;0.25;89.96;94368.69;5052265;28;20210;-84
2022/03/04 01:24:10;;;;;;;138.00;59.10;;;;;;;0.10;90.95;94355.78;5051603;28;20220;-84
2022/03/04 01:26:39;;;;;;;138.13;61.60;;;;;;;0.16;90.85;94359.44;5051799;28;20590;-85
2022/03/04 01:29:08;;;;;;;126.80;60.03;;;;;;;0.24;91.21;94360.22;5051519;28;20692;-85
2022/03/04 01:31:37;;;;;;;130.03;60.90;;;;;;;0.17;90.94;94355.94;5052554;28;20622;-85
2022/03/04 01:34:07;;;;;;;142.73;64.70;;;;;;;0.21;90.93;94355.44;5052363;28;20272;-85
2022/03/04 01:36:36;;;;;;;120.83;54.57;;;;;;;0.17;91.58;94355.94;5050769;28;20295;-84
2022/03/04 01:39:04;;;;;;;101.77;49.73;;;;;;;0.07;91.98;94339.97;5051111;28;20256;-83
2022/03/04 01:41:32;;;;;;;91.27;46.03;;;;;;;0.08;91.84;94347.47;5050612;28;20688;-85
2022/03/04 01:44:01;;;;;;;84.10;41.60;;;;;;;0.23;90.17;94357.84;5050591;28;20231;-85
2022/03/04 01:46:33;;;;;;;72.93;38.80;;;;;;;0.17;89.60;94349.06;5050817;28;20211;-86
2022/03/04 01:49:01;;;;;;;74.00;38.00;;;;;;;0.14;90.64;94348.59;5051373;28;20212;-83
2022/03/04 01:51:28;;;;;;;88.67;44.37;;;;;;;0.14;90.71;94354.50;5050667;28;20235;-84
2022/03/04 01:54:03;;;;;;;97.33;46.53;;;;;;;0.11;90.05;94341.25;5051260;28;20227;-85
2022/03/04 01:56:32;;;;;;;99.60;47.40;;;;;;;0.13;91.56;94341.88;5050780;28;20211;-85
2022/03/04 01:59:02;;;;;;;112.87;51.77;;;;;;;0.21;91.26;94352.06;5050399;28;20210;-82
2022/03/04 02:01:35;;;;;;;119.70;54.80;;;;;;;0.14;90.45;94349.41;5049404;28;20198;-82
2022/03/04 02:04:02;;;;;;;128.73;56.67;;;;;;;-0.02;91.23;94329.78;5049249;28;20221;-85
2022/03/04 02:06:31;;;;;;;115.00;51.57;;;;;;;0.03;92.10;94336.94;5056379;28;20196;-84
2022/03/04 02:09:01;;;;;;;111.27;51.27;;;;;;;0.07;91.92;94337.41;5044775;28;20397;-83
2022/03/04 02:11:29;;;;;;;110.07;50.77;;;;;;;0.11;92.21;94336.16;5050502;28;20202;-83
2022/03/04 02:13:57;;;;;;;105.37;49.67;;;;;;;0.00;90.71;94337.28;5050262;28;20302;-83
2022/03/04 02:16:28;;;;;;;117.37;52.63;;;;;;;-0.04;92.02;94333.44;5050451;28;20241;-83
2022/03/04 02:18:56;;;;;;;117.40;55.03;;;;;;;-0.09;92.50;94343.34;5043905;28;20220;-84
2022/03/04 02:21:40;;;;;;;105.83;51.87;;;;;;;-0.08;92.78;94327.06;5049872;28;20275;-84
2022/03/04 02:24:17;;;;;;;109.93;52.10;;;;;;;0.05;92.18;94341.91;5048844;28;20230;-81
2022/03/04 02:26:51;;;;;;;127.60;52.40;;;;;;;-0.10;91.64;94311.09;5048538;28;20201;-80
2022/03/04 02:29:51;;;;;;;112.13;51.20;;;;;;;-0.41;92.06;94267.59;5054854;28;20688;-80
2022/03/04 02:32:21;;;;;;;114.77;52.43;;;;;;;0.10;91.60;94337.91;5045025;28;20203;-82
2022/03/04 02:34:49;;;;;;;109.03;49.43;;;;;;;0.04;92.12;94324.97;5064180;28;20291;-83
2022/03/04 02:37:19;;;;;;;107.33;49.73;;;;;;;0.07;92.48;94330.56;5059335;28;20204;-84
2022/03/04 02:40:15;;;;;;;111.70;51.13;;;;;;;0.13;92.11;94339.31;5045614;28;20286;-84
2022/03/04 02:42:44;;;;;;;114.73;53.40;;;;;;;0.05;92.39;94329.94;5052314;28;20226;-86
2022/03/04 02:45:13;;;;;;;117.10;53.33;;;;;;;0.09;92.10;94330.41;5052846;28;20702;-85
2022/03/04 02:47:42;;;;;;;119.20;53.73;;;;;;;-0.09;92.27;94305.81;5045904;28;20591;-82
2022/03/04 02:50:12;;;;;;;114.03;52.73;;;;;;;0.10;91.60;94329.44;5054375;28;20205;-82
2022/03/04 02:52:40;;;;;;;121.73;51.60;;;;;;;0.01;91.72;94305.66;5054572;28;20202;-81
2022/03/04 02:55:11;;;;;;;125.70;53.30;;;;;;;-0.02;91.58;94300.88;5055298;28;20205;-81
2022/03/04 02:58:00;;;;;;;125.63;54.23;;;;;;;-0.12;91.61;94282.41;5054348;28;20202;-80
2022/03/04 03:00:30;;;;;;;116.23;54.10;;;;;;;0.04;91.03;94318.09;5061665;28;20221;-83
2022/03/04 03:02:58;;;;;;;130.00;56.03;;;;;;;0.08;91.51;94331.34;5050898;28;20224;-80
2022/03/04 03:05:26;;;;;;;104.00;47.80;;;;;;;0.03;91.71;94328.50;5063612;28;20199;-79
2022/03/04 03:07:54;;;;;;;99.13;45.67;;;;;;;0.04;91.66;94327.53;5052213;28;20202;-80
2022/03/04 03:10:24;;;;;;;94.80;41.30;;;;;;;-0.12;91.59;94307.94;5052813;28;20198;-80
2022/03/04 03:12:52;;;;;;;92.27;43.50;;;;;;;0.00;91.90;94332.19;5052781;28;20651;-80
2022/03/04 03:15:21;;;;;;;105.70;47.27;;;;;;;-0.04;92.02;94325.78;5045765;28;20294;-79
2022/03/04 03:17:50;;;;;;;105.10;45.07;;;;;;;-0.09;92.48;94315.28;5051883;28;20199;-79
2022/03/04 03:20:19;;;;;;;109.50;45.63;;;;;;;-0.04;92.93;94330.91;5045467;28;20202;-80
2022/03/04 03:22:48;;;;;;;92.07;43.70;;;;;;;-0.06;92.47;94325.94;5051813;28;20308;-79
2022/03/04 03:25:46;;;;;;;89.70;39.37;;;;;;;-0.01;92.15;94339.03;5050843;28;20198;-79
2022/03/04 03:28:15;;;;;;;81.13;39.17;;;;;;;-0.05;92.14;94337.75;5047774;28;20472;-83
2022/03/04 03:30:44;;;;;;;85.20;39.27;;;;;;;-0.07;91.96;94337.13;5049541;28;20745;-83
2022/03/04 03:33:12;;;;;;;78.80;37.50;;;;;;;-0.08;91.16;94321.94;5050456;28;20199;-80
2022/03/04 03:35:40;;;;;;;77.47;37.07;;;;;;;-0.21;91.23;94311.44;5057952;28;20194;-79
2022/03/04 03:38:09;;;;;;;72.67;37.27;;;;;;;-0.09;91.10;94336.47;5050947;28;20569;-79
2022/03/04 03:40:42;;;;;;;76.37;39.07;;;;;;;-0.15;90.37;94315.91;5050785;28;20197;-80
2022/03/04 03:43:10;;;;;;;81.10;39.60;;;;;;;-0.02;90.25;94336.63;5051908;28;20221;-80
2022/03/04 03:45:37;;;;;;;79.03;40.63;;;;;;;-0.15;89.92;94326.13;5051886;28;20206;-80
2022/03/04 03:48:07;;;;;;;89.33;41.23;;;;;;;-0.10;89.43;94337.44;5052213;28;20257;-82
2022/03/04 03:50:38;;;;;;;82.40;40.63;;;;;;;-0.15;90.40;94339.69;5052991;28;20649;-81
2022/03/04 03:53:08;;;;;;;91.50;43.27;;;;;;;-0.20;90.37;94328.34;5053142;28;20244;-84
2022/03/04 03:55:38;;;;;;;85.67;42.03;;;;;;;-0.18;90.02;94332.34;5052444;28;20206;-84
2022/03/04 03:58:06;;;;;;;91.33;42.40;;;;;;;-0.26;89.32;94332.34;5053049;28;20213;-83
2022/03/04 04:00:36;;;;;;;79.43;37.23;;;;;;;-0.24;88.67;94335.53;5052329;28;20202;-83
2022/03/04 04:03:05;;;;;;;74.00;38.23;;;;;;;-0.18;88.86;94345.13;5052008;28;20222;-86
2022/03/04 04:05:34;;;;;;;94.27;45.17;;;;;;;-0.18;89.18;94339.22;5051706;28;20263;-84
2022/03/04 04:08:05;;;;;;;93.10;46.87;;;;;;;-0.25;89.67;94349.25;5051666;28;20289;-85
2022/03/04 04:10:33;;;;;;;100.47;48.50;;;;;;;-0.31;90.27;94354.19;5051903;28;20659;-84
2022/03/04 04:13:04;;;;;;;99.87;49.90;;;;;;;-0.41;90.63;94340.81;5051463;28;20252;-84
2022/03/04 04:15:33;;;;;;;105.00;51.87;;;;;;;-0.48;90.75;94332.19;5051314;28;20194;-79
2022/03/04 04:18:01;;;;;;;107.83;50.70;;;;;;;-0.48;90.95;94330.44;5045044;28;20198;-79
2022/03/04 04:20:31;;;;;;;139.40;58.00;;;;;;;-0.34;90.77;94342.56;5045095;28;20234;-81
2022/03/04 04:22:59;;;;;;;121.93;53.33;;;;;;;-0.36;90.79;94343.66;5047888;28;20218;-80
2022/03/04 04:25:27;;;;;;;111.80;53.63;;;;;;;-0.39;91.24;94338.88;5048973;28;20228;-79
2022/03/04 04:27:56;;;;;;;110.23;51.37;;;;;;;-0.27;90.43;94355.47;5052478;28;20213;-83
2022/03/04 04:30:29;;;;;;;110.53;53.10;;;;;;;-0.30;90.38;94354.03;5051737;28;20201;-83
2022/03/04 04:33:17;;;;;;;118.07;54.47;;;;;;;-0.36;90.95;94357.22;5051135;28;20688;-85
2022/03/04 04:35:47;;;;;;;127.37;57.73;;;;;;;-0.40;90.93;94358.50;5060010;28;20201;-85
2022/03/04 04:38:15;;;;;;;128.93;58.53;;;;;;;-0.40;90.88;94363.59;5057974;28;20256;-83
2022/03/04 04:40:46;;;;;;;118.10;57.63;;;;;;;-0.41;90.58;94368.88;5051907;28;20373;-72
2022/03/04 04:43:15;;;;;;;115.70;56.57;;;;;;;-0.45;90.76;94365.84;5049846;28;20221;-72
2022/03/04 04:45:44;;;;;;;94.67;47.77;;;;;;;-0.46;91.24;94369.34;5050047;28;20198;-72
2022/03/04 04:48:13;;;;;;;91.43;44.73;;;;;;;-0.44;90.76;94367.44;5050184;28;20212;-73
2022/03/04 04:50:42;;;;;;;76.03;39.87;;;;;;;-0.35;90.24;94381.81;5050168;28;20696;-73
2022/03/04 04:53:09;;;;;;;72.07;35.83;;;;;;;-0.41;90.07;94377.34;5050054;28;20194;-73
2022/03/04 04:55:40;;;;;;;69.00;34.80;;;;;;;-0.36;90.21;94371.75;5049901;28;20204;-73
2022/03/04 04:58:10;;;;;;;66.57;34.43;;;;;;;-0.40;90.40;94371.25;5050089;28;20198;-73
2022/03/04 05:00:37;;;;;;;71.73;34.90;;;;;;;-0.41;90.17;94379.09;5030233;28;20281;-73
2022/03/04 05:03:07;;;;;;;68.53;35.83;;;;;;;-0.42;90.92;94378.28;5048499;28;20209;-73
2022/03/04 05:05:35;;;;;;;70.73;35.87;;;;;;;-0.39;90.72;94375.41;5049305;28;20247;-72
2022/03/04 05:08:04;;;;;;;79.40;36.77;;;;;;;-0.44;90.17;94377.66;5049616;28;20216;-73
2022/03/04 05:10:31;;;;;;;73.37;37.20;;;;;;;-0.39;90.46;94374.59;5049533;28;20205;-73
2022/03/04 05:12:58;;;;;;;71.73;36.40;;;;;;;-0.42;90.69;94373.19;5049565;28;20269;-73
2022/03/04 05:15:26;;;;;;;67.97;35.00;;;;;;;-0.45;91.02;94368.38;5048322;28;20210;-72
2022/03/04 05:17:54;;;;;;;74.77;34.70;;;;;;;-0.45;90.76;94376.03;5048921;28;20578;-73
2022/03/04 05:20:22;;;;;;;69.33;36.00;;;;;;;-0.44;90.62;94371.75;5047871;28;20201;-73
2022/03/04 05:22:50;;;;;;;68.40;36.40;;;;;;;-0.41;91.06;94376.53;5048555;28;20391;-72
2022/03/04 05:25:18;;;;;;;70.27;35.40;;;;;;;-0.44;90.62;94375.09;5049084;28;20224;-72
2022/03/04 05:27:46;;;;;;;75.27;37.83;;;;;;;-0.43;90.30;94370.81;5048532;28;20209;-74
2022/03/04 05:30:14;;;;;;;83.70;40.73;;;;;;;-0.39;90.62;94369.50;5048167;28;20293;-72
2022/03/04 05:32:43;;;;;;;77.80;38.63;;;;;;;-0.43;90.73;94369.00;5048649;28;20661;-71
2022/03/04 05:35:10;;;;;;;77.10;38.03;;;;;;;-0.46;91.12;94381.31;5047869;28;20215;-75
2022/03/04 05:37:39;;;;;;;72.37;37.63;;;;;;;-0.42;90.92;94380.84;5047730;28;20225;-72
2022/03/04 05:40:09;;;;;;;74.23;37.50;;;;;;;-0.45;90.89;94377.78;5045342;28;20629;-74
2022/03/04 05:42:37;;;;;;;79.00;37.97;;;;;;;-0.48;91.03;94378.09;5046679;28;20281;-74
2022/03/04 05:45:05;;;;;;;74.43;38.07;;;;;;;-0.38;90.25;94383.88;5046872;28;20254;-72
2022/03/04 05:47:32;;;;;;;76.97;36.93;;;;;;;-0.32;90.19;94389.16;5047209;28;20278;-72
2022/03/04 05:50:00;;;;;;;71.27;35.53;;;;;;;-0.37;90.01;94393.91;5047368;28;20194;-72
2022/03/04 05:52:28;;;;;;;68.47;35.50;;;;;;;-0.35;90.19;94386.13;5045286;28;20574;-73
2022/03/04 05:54:58;;;;;;;71.53;36.07;;;;;;;-0.36;90.22;94384.50;5047143;28;20209;-72
2022/03/04 05:57:27;;;;;;;78.20;38.10;;;;;;;-0.37;90.37;94386.25;5049422;28;20210;-73
2022/03/04 05:59:54;;;;;;;96.43;39.87;;;;;;;-0.34;90.49;94392.78;5051639;28;20294;-72
2022/03/04 06:02:23;;;;;;;75.27;36.83;;;;;;;-0.30;90.12;94384.69;5051059;28;20689;-73
2022/03/04 06:04:50;;;;;;;80.67;36.57;;;;;;;-0.26;90.10;94385.16;5051497;28;20234;-74
2022/03/04 06:07:19;;;;;;;105.23;41.93;;;;;;;-0.20;90.04;94387.84;5051488;28;20234;-72
2022/03/04 06:09:47;;;;;;;98.87;41.17;;;;;;;-0.12;89.50;94397.28;5051904;28;20292;-72
2022/03/04 06:12:16;;;;;;;91.47;39.53;;;;;;;-0.04;88.92;94392.19;5051528;28;20252;-72
2022/03/04 06:14:43;;;;;;;84.67;39.17;;;;;;;0.00;89.05;94391.69;5051803;28;20207;-72
2022/03/04 06:17:12;;;;;;;84.70;38.90;;;;;;;0.06;88.35;94404.78;5051764;28;20637;-72
2022/03/04 06:19:41;;;;;;;97.87;42.03;;;;;;;0.13;88.25;94388.66;5051558;28;20202;-71
2022/03/04 06:22:10;;;;;;;86.33;40.37;;;;;;;0.13;87.91;94385.28;5050285;28;20210;-72
2022/03/04 06:24:38;;;;;;;81.73;39.60;;;;;;;0.27;88.27;94392.31;5051964;28;20253;-71
2022/03/04 06:27:07;;;;;;;81.80;38.47;;;;;;;0.29;87.52;94387.84;5051732;28;20290;-72
2022/03/04 06:29:36;;;;;;;84.23;39.77;;;;;;;0.30;88.02;94387.69;5051653;28;20765;-72
2022/03/04 06:32:03;;;;;;;85.10;39.43;;;;;;;0.38;87.41;94389.41;5051521;28;20272;-73
2022/03/04 06:34:31;;;;;;;78.83;38.90;;;;;;;0.47;87.38;94398.66;5051543;28;20663;-72
2022/03/04 06:37:00;;;;;;;78.67;39.90;;;;;;;0.53;87.52;94405.69;5047451;28;20206;-72
2022/03/04 06:39:28;;;;;;;80.20;38.50;;;;;;;0.56;86.80;94405.34;5051437;28;20198;-72
2022/03/04 06:41:57;;;;;;;85.37;43.37;;;;;;;0.54;86.34;94400.41;5051118;28;20210;-72
2022/03/04 06:44:26;;;;;;;84.20;39.73;;;;;;;0.64;87.26;94400.22;5049686;28;20224;-73
2022/03/04 06:46:55;;;;;;;78.70;38.73;;;;;;;0.72;86.26;94409.63;5050239;28;20209;-73
2022/03/04 06:49:23;;;;;;;73.37;37.33;;;;;;;0.75;85.77;94411.88;5050279;28;20249;-72
2022/03/04 06:51:51;;;;;;;74.73;36.53;;;;;;;0.75;86.18;94407.53;5050505;28;20668;-75
2022/03/04 06:54:19;;;;;;;72.20;35.53;;;;;;;0.85;84.90;94408.16;5051539;28;20293;-72
2022/03/04 06:56:47;;;;;;;69.97;37.30;;;;;;;0.91;84.34;94414.38;5051136;28;20652;-71
2022/03/04 06:59:15;;;;;;;75.30;36.87;;;;;;;0.87;84.41;94419.00;5050898;28;20249;-72
2022/03/04 07:01:43;;;;;;;80.17;38.50;;;;;;;0.61;84.17;94417.66;5050494;28;20257;-72
2022/03/04 07:04:13;;;;;;;88.60;42.37;;;;;;;0.46;85.95;94422.63;5050870;28;20641;-72
2022/03/04 07:06:42;;;;;;;96.40;43.43;;;;;;;0.43;86.01;94423.72;5051057;28;20676;-72
2022/03/04 07:09:10;;;;;;;95.73;44.03;;;;;;;0.51;86.45;94420.38;5050135;28;20315;-72
2022/03/04 07:11:39;;;;;;;93.93;45.63;;;;;;;0.36;86.92;94420.25;5051255;28;20205;-72
2022/03/04 07:14:07;;;;;;;87.93;42.50;;;;;;;0.31;87.56;94419.94;5050918;28;20206;-73
2022/03/04 07:16:35;;;;;;;97.03;43.70;;;;;;;0.54;86.88;94417.50;5050462;28;20623;-74
2022/03/04 07:19:03;;;;;;;92.67;44.93;;;;;;;0.51;87.25;94420.38;5049756;28;20206;-72
2022/03/04 07:21:32;;;;;;;96.20;48.33;;;;;;;0.55;86.42;94419.88;5049633;28;20207;-87
2022/03/04 07:24:00;;;;;;;97.87;48.93;;;;;;;0.64;85.76;94422.41;5048401;28;20282;-88
2022/03/04 07:26:27;;;;;;;102.90;52.00;;;;;;;0.67;86.60;94422.09;5048265;28;20217;-75
2022/03/04 07:28:55;;;;;;;107.27;54.73;;;;;;;0.68;86.22;94423.69;5053468;28;20219;-82
2022/03/04 07:31:23;;;;;;;115.63;54.47;;;;;;;0.77;87.52;94425.28;5058239;28;20203;-80
2022/03/04 07:33:51;;;;;;;111.90;54.67;;;;;;;0.92;87.84;94424.44;5049705;28;20266;-80
2022/03/04 07:36:20;;;;;;;115.37;52.77;;;;;;;1.17;87.02;94430.25;5050966;28;20216;-81
2022/03/04 07:38:49;;;;;;;111.63;56.23;;;;;;;1.32;84.85;94436.28;5050494;28;20202;-80
2022/03/04 07:41:17;;;;;;;111.40;57.87;;;;;;;1.45;84.14;94430.59;5050314;28;20209;-81
2022/03/04 07:43:45;;;;;;;112.33;56.73;;;;;;;1.53;84.33;94440.81;5050101;28;20207;-81
2022/03/04 07:46:12;;;;;;;103.73;51.83;;;;;;;1.54;82.71;94420.16;5050630;28;20217;-80
2022/03/04 07:48:41;;;;;;;111.50;53.63;;;;;;;1.66;82.24;94431.63;5050135;28;20231;-80
2022/03/04 07:51:09;;;;;;;114.47;56.17;;;;;;;1.83;81.46;94428.94;5049786;28;20202;-79
2022/03/04 07:53:37;;;;;;;103.03;51.47;;;;;;;1.93;80.73;94430.31;5030747;28;20289;-81
2022/03/04 07:56:06;;;;;;;111.83;52.93;;;;;;;2.02;79.41;94423.38;5046954;28;20288;-81
2022/03/04 07:58:34;;;;;;;101.37;51.40;;;;;;;1.99;79.94;94423.72;5049990;28;20201;-83
2022/03/04 08:01:02;;;;;;;109.73;51.20;;;;;;;2.05;79.52;94423.81;5050773;28;20695;-81
2022/03/04 08:03:30;;;;;;;99.57;50.73;;;;;;;2.13;78.90;94425.53;5050830;28;20206;-80
2022/03/04 08:05:57;;;;;;;97.57;49.40;;;;;;;2.23;78.77;94421.75;5049682;28;20688;-78
2022/03/04 08:08:25;;;;;;;100.53;48.73;;;;;;;2.32;78.77;94424.25;5050214;28;20206;-79
2022/03/04 08:10:54;;;;;;;102.57;48.50;;;;;;;2.46;78.26;94428.59;5051126;28;20588;-80
2022/03/04 08:13:23;;;;;;;81.13;41.23;;;;;;;2.54;78.40;94426.75;5050887;28;20229;-80
2022/03/04 08:15:50;;;;;;;67.63;35.07;;;;;;;2.62;76.86;94425.91;5050614;28;20230;-79
2022/03/04 08:18:18;;;;;;;73.87;34.57;;;;;;;2.73;75.26;94421.13;5050840;28;20202;-80
2022/03/04 08:20:45;;;;;;;74.00;36.43;;;;;;;2.76;74.72;94422.56;5050339;28;20212;-79
2022/03/04 08:23:13;;;;;;;82.57;42.37;;;;;;;2.84;75.03;94430.16;5047013;28;20198;-81
2022/03/04 08:25:40;;;;;;;77.93;41.13;;;;;;;2.97;73.99;94432.13;5047597;28;20237;-81
2022/03/04 08:28:08;;;;;;;84.00;42.17;;;;;;;2.93;74.07;94423.19;5048442;28;20616;-81
2022/03/04 08:30:37;;;;;;;81.50;40.17;;;;;;;3.09;72.94;94446.88;5051273;28;20206;-81
2022/03/04 08:33:05;;;;;;;66.03;35.07;;;;;;;2.86;72.17;94418.75;5049632;28;20209;-80
2022/03/04 08:35:33;;;;;;;58.00;31.77;;;;;;;3.06;72.14;94434.41;5051253;28;20237;-81
2022/03/04 08:38:02;;;;;;;57.93;30.80;;;;;;;3.05;70.79;94440.53;5050015;28;20244;-82
2022/03/04 08:40:30;;;;;;;63.50;30.97;;;;;;;2.94;70.75;94435.84;5050887;28;20201;-82
2022/03/04 08:42:58;;;;;;;56.43;32.27;;;;;;;2.73;71.09;94441.66;5050796;28;20281;-80
2022/03/04 08:45:25;;;;;;;63.80;33.13;;;;;;;2.50;72.14;94433.22;5051252;28;20226;-83
2022/03/04 08:47:55;;;;;;;64.03;31.97;;;;;;;2.64;72.72;94447.03;5048533;28;20259;-81
2022/03/04 08:50:23;;;;;;;62.90;29.87;;;;;;;2.79;71.36;94445.28;5047862;28;20293;-80
2022/03/04 08:52:50;;;;;;;65.97;29.77;;;;;;;3.02;70.00;94446.03;5050351;28;20206;-81
2022/03/04 08:55:18;;;;;;;59.13;29.97;;;;;;;2.84;69.91;94446.34;5050581;28;20198;-82
2022/03/04 08:57:46;;;;;;;57.30;30.43;;;;;;;2.90;70.60;94444.84;5050610;28;20201;-81
2022/03/04 09:00:15;;;;;;;67.97;31.33;;;;;;;3.01;70.04;94443.59;5049393;28;20283;-83
2022/03/04 09:02:43;;;;;;;65.80;31.23;;;;;;;3.21;69.37;94442.91;5045170;28;20665;-81
2022/03/04 09:05:12;;;;;;;56.53;29.87;;;;;;;3.55;68.49;94442.31;5050564;28;20222;-81
2022/03/04 09:07:39;;;;;;;54.00;30.50;;;;;;;3.88;67.43;94443.50;5051089;28;20226;-88
2022/03/04 09:10:08;;;;;;;57.23;29.80;;;;;;;4.19;67.16;94437.25;5052027;28;20213;-88
2022/03/04 09:12:36;;;;;;;59.97;29.27;;;;;;;4.44;64.58;94446.19;5051943;28;20290;-82
2022/03/04 09:15:04;;;;;;;49.60;27.90;;;;;;;4.57;63.88;94436.00;5052621;28;20736;-85
2022/03/04 09:17:31;;;;;;;47.90;27.83;;;;;;;4.97;63.75;94439.63;5053293;28;20190;-86
2022/03/04 09:19:59;;;;;;;53.10;28.70;;;;;;;5.22;63.27;94450.28;5051819;28;20654;-86
2022/03/04 09:22:29;;;;;;;46.60;26.63;;;;;;;5.55;62.27;94446.09;5051156;28;20602;-88
2022/03/04 09:24:57;;;;;;;58.10;27.53;;;;;;;5.92;60.91;94440.50;5049337;28;20233;-87
2022/03/04 09:27:25;;;;;;;57.40;28.87;;;;;;;6.06;59.28;94449.06;5051035;28;20204;-86
2022/03/04 09:29:52;;;;;;;57.33;28.93;;;;;;;5.98;59.55;94441.50;5051082;28;20228;-87
2022/03/04 09:32:19;;;;;;;52.90;29.47;;;;;;;6.25;59.94;94453.47;5052493;28;20212;-84
2022/03/04 09:34:47;;;;;;;58.77;29.33;;;;;;;6.57;59.12;94450.13;5055563;28;20211;-85
2022/03/04 09:37:15;;;;;;;59.37;29.67;;;;;;;6.88;58.19;94439.19;5055353;28;20209;-86
2022/03/04 09:39:45;;;;;;;55.77;30.23;;;;;;;7.31;57.59;94452.44;5051475;28;20205;-87
2022/03/04 09:42:14;;;;;;;53.80;29.53;;;;;;;7.61;57.03;94457.91;5055026;28;20202;-89
2022/03/04 09:44:42;;;;;;;54.07;30.10;;;;;;;7.77;55.16;94449.69;5055315;28;20240;-89
2022/03/04 09:47:12;;;;;;;53.33;29.63;;;;;;;7.97;55.06;94446.00;5055937;28;20327;-89
2022/03/04 09:49:40;;;;;;;52.57;30.50;;;;;;;8.47;53.67;94461.69;5055240;28;20556;-84
2022/03/04 09:52:08;;;;;;;55.33;30.47;;;;;;;8.55;52.92;94456.25;5054069;28;20234;-91
2022/03/04 09:54:37;;;;;;;59.67;30.37;;;;;;;8.64;52.96;94454.19;5053482;28;20287;-87
2022/03/04 09:57:06;;;;;;;51.33;30.53;;;;;;;8.69;53.14;94449.97;5054580;28;20201;-87
2022/03/04 09:59:35;;;;;;;53.87;30.10;;;;;;;8.94;52.64;94448.19;5054590;28;20217;-87
2022/03/04 10:02:02;;;;;;;54.80;30.50;;;;;;;9.02;52.05;94439.34;5054391;28;20294;-87
2022/03/04 10:04:31;;;;;;;53.30;29.80;;;;;;;9.30;51.94;94441.44;5055091;28;20205;-88
2022/03/04 10:07:09;;;;;;;55.33;29.37;;;;;;;9.68;50.59;94440.25;5055032;28;20197;-87
2022/03/04 10:09:39;;;;;;;48.00;27.70;;;;;;;10.22;48.89;94438.59;5054522;28;20631;-88
2022/03/04 10:12:11;;;;;;;49.83;28.27;;;;;;;10.77;48.93;94431.38;5056846;28;20241;-86
2022/03/04 10:15:01;;;;;;;47.37;28.60;;;;;;;11.18;47.61;94428.69;5068124;28;20182;-87
2022/03/04 10:17:28;;;;;;;51.60;29.40;;;;;;;11.63;46.63;94425.50;5066528;28;20638;-85
2022/03/04 10:19:58;;;;;;;54.73;30.30;;;;;;;12.07;46.37;94417.00;5051946;28;20198;-87
2022/03/04 10:22:35;;;;;;;53.17;30.93;;;;;;;12.24;45.72;94424.84;5053368;28;20260;-86
2022/03/04 10:25:03;;;;;;;47.73;29.03;;;;;;;11.98;44.24;94428.03;5054553;28;20236;-87
2022/03/04 10:27:35;;;;;;;55.30;30.47;;;;;;;11.61;44.14;94414.50;5054510;28;20202;-86
2022/03/04 10:30:04;;;;;;;53.77;30.10;;;;;;;11.54;44.54;94412.03;5051288;28;20697;-88
2022/03/04 10:32:34;;;;;;;61.83;30.60;;;;;;;11.69;44.36;94419.34;5053008;28;20677;-88
2022/03/04 10:35:05;;;;;;;47.77;30.00;;;;;;;11.66;44.47;94420.59;5054416;28;20203;-88
2022/03/04 10:37:46;;;;;;;46.60;29.67;;;;;;;11.47;43.92;94407.97;5053857;28;20357;-79
2022/03/04 10:40:16;;;;;;;55.83;29.83;;;;;;;11.24;45.58;94398.38;5050228;28;20225;-87
2022/03/04 10:42:53;;;;;;;55.33;29.27;;;;;;;11.01;46.02;94398.38;5049842;28;20696;-86
2022/03/04 10:45:23;;;;;;;53.00;28.10;;;;;;;11.64;45.22;94388.00;5050487;28;20225;-87
2022/03/04 10:47:53;;;;;;;43.37;26.17;;;;;;;12.15;43.25;94387.94;5052953;28;20198;-82
2022/03/04 10:50:29;;;;;;;47.23;26.40;;;;;;;12.43;42.30;94395.75;5053763;28;20197;-80
2022/03/04 10:53:01;;;;;;;51.20;26.60;;;;;;;12.67;43.07;94387.81;5052971;28;20237;-84
2022/03/04 10:55:31;;;;;;;49.57;28.77;;;;;;;13.04;42.87;94387.03;5053415;28;20202;-81
2022/03/04 10:58:04;;;;;;;46.33;27.90;;;;;;;12.81;42.15;94382.00;5051725;28;20589;-85
2022/03/04 11:00:32;;;;;;;40.83;24.37;;;;;;;12.75;41.32;94376.97;5051682;28;20576;-85
2022/03/04 11:03:00;;;;;;;40.87;23.57;;;;;;;12.73;42.38;94377.19;5053163;28;20194;-80
2022/03/04 11:05:28;;;;;;;42.13;25.67;;;;;;;12.81;42.65;94374.19;5052780;28;20305;-78
2022/03/04 11:07:57;;;;;;;39.20;22.10;;;;;;;12.84;41.47;94370.34;5052674;28;20198;-87
2022/03/04 11:10:26;;;;;;;27.17;15.77;;;;;;;12.62;40.77;94365.03;5053099;28;20230;-86
2022/03/04 11:12:55;;;;;;;35.70;19.40;;;;;;;12.62;40.47;94367.63;5053725;28;20244;-86
2022/03/04 11:15:31;;;;;;;33.23;19.70;;;;;;;13.16;40.50;94355.66;5053803;28;20194;-86
2022/03/04 11:18:03;;;;;;;32.07;17.57;;;;;;;13.69;39.44;94362.06;5053304;28;20201;-86
2022/03/04 11:20:32;;;;;;;33.30;20.57;;;;;;;14.35;38.32;94360.94;5052505;28;20267;-86
2022/03/04 11:23:00;;;;;;;31.17;18.40;;;;;;;14.72;36.60;94346.09;5051907;28;20604;-81
2022/03/04 11:25:36;;;;;;;22.57;13.40;;;;;;;14.51;34.78;94341.75;5051597;28;20236;-81
2022/03/04 11:28:11;;;;;;;23.07;11.77;;;;;;;14.79;34.76;94344.06;5052237;28;20259;-82
2022/03/04 11:30:44;;;;;;;24.50;11.17;;;;;;;15.19;34.72;94346.13;5052134;28;20238;-81